sensor_id;sensor_type;location;lat;lon;timestamp;temperature;humidity
38265;DHT22;24062;47.480;8.768;2023-12-29T00:02:11;19.60;46.50
38265;DHT22;24062;47.480;8.768;2023-12-29T00:04:37;19.60;46.50
38265;DHT22;24062;47.480;8.768;2023-12-29T00:07:05;19.60;46.50
38265;DHT22;24062;47.480;8.768;2023-12-29T00:09:31;19.60;46.50
38265;DHT22;24062;47.480;8.768;2023-12-29T00:12:04;19.60;46.60
38265;DHT22;24062;47.480;8.768;2023-12-29T00:14:31;19.50;46.50
38265;DHT22;24062;47.480;8.768;2023-12-29T00:16:58;19.50;46.60
38265;DHT22;24062;47.480;8.768;2023-12-29T00:19:26;19.50;46.60
38265;DHT22;24062;47.480;8.768;2023-12-29T00:21:53;19.50;46.60
38265;DHT22;24062;47.480;8.768;2023-12-29T00:24:20;19.50;46.60
38265;DHT22;24062;47.480;8.768;2023-12-29T00:26:47;19.50;46.70
38265;DHT22;24062;47.480;8.768;2023-12-29T00:29:14;19.50;46.70
38265;DHT22;24062;47.480;8.768;2023-12-29T00:31:41;19.40;46.70
38265;DHT22;24062;47.480;8.768;2023-12-29T00:34:08;19.40;46.70
38265;DHT22;24062;47.480;8.768;2023-12-29T00:36:36;19.40;46.70
38265;DHT22;24062;47.480;8.768;2023-12-29T00:39:03;19.40;46.70
38265;DHT22;24062;47.480;8.768;2023-12-29T00:41:29;19.40;46.80
38265;DHT22;24062;47.480;8.768;2023-12-29T00:43:56;19.30;46.70
38265;DHT22;24062;47.480;8.768;2023-12-29T00:46:23;19.30;46.80
38265;DHT22;24062;47.480;8.768;2023-12-29T00:48:50;19.30;46.80
38265;DHT22;24062;47.480;8.768;2023-12-29T00:51:17;19.30;46.80
38265;DHT22;24062;47.480;8.768;2023-12-29T00:53:45;19.30;46.80
38265;DHT22;24062;47.480;8.768;2023-12-29T00:56:12;19.30;46.80
38265;DHT22;24062;47.480;8.768;2023-12-29T00:58:39;19.20;46.90
38265;DHT22;24062;47.480;8.768;2023-12-29T01:01:07;19.20;46.90
38265;DHT22;24062;47.480;8.768;2023-12-29T01:03:36;19.20;46.90
38265;DHT22;24062;47.480;8.768;2023-12-29T01:06:04;19.20;46.90
38265;DHT22;24062;47.480;8.768;2023-12-29T01:08:30;19.20;46.90
38265;DHT22;24062;47.480;8.768;2023-12-29T01:11:00;19.20;47.00
38265;DHT22;24062;47.480;8.768;2023-12-29T01:13:27;19.10;46.90
38265;DHT22;24062;47.480;8.768;2023-12-29T01:15:54;19.20;47.00
38265;DHT22;24062;47.480;8.768;2023-12-29T01:18:20;19.10;46.90
38265;DHT22;24062;47.480;8.768;2023-12-29T01:20:47;19.10;46.90
38265;DHT22;24062;47.480;8.768;2023-12-29T01:23:14;19.10;46.90
38265;DHT22;24062;47.480;8.768;2023-12-29T01:25:41;19.10;46.90
38265;DHT22;24062;47.480;8.768;2023-12-29T01:28:10;19.10;47.00
38265;DHT22;24062;47.480;8.768;2023-12-29T01:30:37;19.10;47.00
38265;DHT22;24062;47.480;8.768;2023-12-29T01:33:04;19.10;47.00
38265;DHT22;24062;47.480;8.768;2023-12-29T01:35:31;19.10;47.00
38265;DHT22;24062;47.480;8.768;2023-12-29T01:37:57;19.10;47.00
38265;DHT22;24062;47.480;8.768;2023-12-29T01:40:24;19.10;47.00
38265;DHT22;24062;47.480;8.768;2023-12-29T01:42:51;19.00;47.00
38265;DHT22;24062;47.480;8.768;2023-12-29T01:45:22;19.00;47.00
38265;DHT22;24062;47.480;8.768;2023-12-29T01:47:49;19.00;47.00
38265;DHT22;24062;47.480;8.768;2023-12-29T01:50:18;19.00;47.00
38265;DHT22;24062;47.480;8.768;2023-12-29T01:52:46;19.00;47.00
38265;DHT22;24062;47.480;8.768;2023-12-29T01:55:17;19.00;47.00
38265;DHT22;24062;47.480;8.768;2023-12-29T01:57:45;19.00;47.10
38265;DHT22;24062;47.480;8.768;2023-12-29T02:00:13;19.00;47.10
38265;DHT22;24062;47.480;8.768;2023-12-29T02:02:44;19.00;47.10
38265;DHT22;24062;47.480;8.768;2023-12-29T02:05:14;19.00;47.00
38265;DHT22;24062;47.480;8.768;2023-12-29T02:07:41;19.00;47.10
38265;DHT22;24062;47.480;8.768;2023-12-29T02:10:09;18.90;47.00
38265;DHT22;24062;47.480;8.768;2023-12-29T02:12:39;18.90;47.00
38265;DHT22;24062;47.480;8.768;2023-12-29T02:15:07;18.90;47.00
38265;DHT22;24062;47.480;8.768;2023-12-29T02:17:39;18.90;47.00
38265;DHT22;24062;47.480;8.768;2023-12-29T02:20:09;18.90;47.00
38265;DHT22;24062;47.480;8.768;2023-12-29T02:22:36;18.90;47.00
38265;DHT22;24062;47.480;8.768;2023-12-29T02:25:05;18.90;47.00
38265;DHT22;24062;47.480;8.768;2023-12-29T02:27:39;18.90;47.10
38265;DHT22;24062;47.480;8.768;2023-12-29T02:30:27;18.90;47.10
38265;DHT22;24062;47.480;8.768;2023-12-29T02:32:59;18.90;47.10
38265;DHT22;24062;47.480;8.768;2023-12-29T02:35:28;18.90;47.10
38265;DHT22;24062;47.480;8.768;2023-12-29T02:37:58;18.90;47.10
38265;DHT22;24062;47.480;8.768;2023-12-29T02:40:27;18.80;47.00
38265;DHT22;24062;47.480;8.768;2023-12-29T02:42:54;18.90;47.10
38265;DHT22;24062;47.480;8.768;2023-12-29T02:45:21;18.90;47.20
38265;DHT22;24062;47.480;8.768;2023-12-29T02:47:49;18.80;47.00
38265;DHT22;24062;47.480;8.768;2023-12-29T02:50:16;18.80;47.10
38265;DHT22;24062;47.480;8.768;2023-12-29T02:52:43;18.80;47.00
38265;DHT22;24062;47.480;8.768;2023-12-29T02:55:10;18.80;47.70
38265;DHT22;24062;47.480;8.768;2023-12-29T02:57:39;18.80;47.10
38265;DHT22;24062;47.480;8.768;2023-12-29T03:00:06;18.80;47.10
38265;DHT22;24062;47.480;8.768;2023-12-29T03:02:34;18.80;47.10
38265;DHT22;24062;47.480;8.768;2023-12-29T03:05:01;18.80;47.10
38265;DHT22;24062;47.480;8.768;2023-12-29T03:07:28;18.70;47.00
38265;DHT22;24062;47.480;8.768;2023-12-29T03:09:54;18.70;47.10
38265;DHT22;24062;47.480;8.768;2023-12-29T03:12:21;18.70;47.10
38265;DHT22;24062;47.480;8.768;2023-12-29T03:14:50;18.70;47.10
38265;DHT22;24062;47.480;8.768;2023-12-29T03:17:16;18.70;47.10
38265;DHT22;24062;47.480;8.768;2023-12-29T03:19:43;18.80;47.00
38265;DHT22;24062;47.480;8.768;2023-12-29T03:22:10;18.90;46.90
38265;DHT22;24062;47.480;8.768;2023-12-29T03:24:39;19.00;46.90
38265;DHT22;24062;47.480;8.768;2023-12-29T03:27:06;19.00;46.80
38265;DHT22;24062;47.480;8.768;2023-12-29T03:29:33;19.10;46.80
38265;DHT22;24062;47.480;8.768;2023-12-29T03:32:01;19.10;46.80
38265;DHT22;24062;47.480;8.768;2023-12-29T03:34:28;19.20;46.80
38265;DHT22;24062;47.480;8.768;2023-12-29T03:36:55;19.20;46.70
38265;DHT22;24062;47.480;8.768;2023-12-29T03:39:22;19.30;46.70
38265;DHT22;24062;47.480;8.768;2023-12-29T03:41:49;19.30;46.70
38265;DHT22;24062;47.480;8.768;2023-12-29T03:44:15;19.40;46.60
38265;DHT22;24062;47.480;8.768;2023-12-29T03:46:43;19.40;46.60
38265;DHT22;24062;47.480;8.768;2023-12-29T03:49:11;19.40;46.60
38265;DHT22;24062;47.480;8.768;2023-12-29T03:51:38;19.50;46.70
38265;DHT22;24062;47.480;8.768;2023-12-29T03:54:05;19.50;46.60
38265;DHT22;24062;47.480;8.768;2023-12-29T03:56:32;19.50;46.60
38265;DHT22;24062;47.480;8.768;2023-12-29T03:58:59;19.50;46.60
38265;DHT22;24062;47.480;8.768;2023-12-29T04:01:26;19.60;46.60
38265;DHT22;24062;47.480;8.768;2023-12-29T04:03:53;19.60;46.60
38265;DHT22;24062;47.480;8.768;2023-12-29T04:06:21;19.60;46.50
38265;DHT22;24062;47.480;8.768;2023-12-29T04:08:48;19.70;46.50
38265;DHT22;24062;47.480;8.768;2023-12-29T04:11:15;19.70;46.50
38265;DHT22;24062;47.480;8.768;2023-12-29T04:13:42;19.70;46.50
38265;DHT22;24062;47.480;8.768;2023-12-29T04:16:09;19.70;46.50
38265;DHT22;24062;47.480;8.768;2023-12-29T04:18:36;19.70;46.50
38265;DHT22;24062;47.480;8.768;2023-12-29T04:21:03;19.80;46.60
38265;DHT22;24062;47.480;8.768;2023-12-29T04:23:31;19.70;46.40
38265;DHT22;24062;47.480;8.768;2023-12-29T04:25:58;19.80;46.50
38265;DHT22;24062;47.480;8.768;2023-12-29T04:28:25;19.80;46.40
38265;DHT22;24062;47.480;8.768;2023-12-29T04:30:52;19.80;46.40
38265;DHT22;24062;47.480;8.768;2023-12-29T04:33:18;19.90;46.50
38265;DHT22;24062;47.480;8.768;2023-12-29T04:35:45;19.90;46.40
38265;DHT22;24062;47.480;8.768;2023-12-29T04:38:12;19.90;46.40
38265;DHT22;24062;47.480;8.768;2023-12-29T04:40:41;19.90;46.30
38265;DHT22;24062;47.480;8.768;2023-12-29T04:43:07;19.90;46.30
38265;DHT22;24062;47.480;8.768;2023-12-29T04:45:34;19.90;46.30
38265;DHT22;24062;47.480;8.768;2023-12-29T04:48:01;20.00;47.00
38265;DHT22;24062;47.480;8.768;2023-12-29T04:50:28;20.00;46.40
38265;DHT22;24062;47.480;8.768;2023-12-29T04:52:55;20.00;46.30
38265;DHT22;24062;47.480;8.768;2023-12-29T04:55:22;20.00;46.30
38265;DHT22;24062;47.480;8.768;2023-12-29T04:57:50;20.00;46.30
38265;DHT22;24062;47.480;8.768;2023-12-29T05:00:17;20.10;46.30
38265;DHT22;24062;47.480;8.768;2023-12-29T05:02:44;20.10;46.30
38265;DHT22;24062;47.480;8.768;2023-12-29T05:05:11;20.10;46.30
38265;DHT22;24062;47.480;8.768;2023-12-29T05:07:38;20.10;46.30
38265;DHT22;24062;47.480;8.768;2023-12-29T05:10:06;20.10;46.30
38265;DHT22;24062;47.480;8.768;2023-12-29T05:12:33;20.10;46.30
38265;DHT22;24062;47.480;8.768;2023-12-29T05:15:01;20.10;46.20
38265;DHT22;24062;47.480;8.768;2023-12-29T05:17:28;20.20;46.30
38265;DHT22;24062;47.480;8.768;2023-12-29T05:19:54;20.20;46.30
38265;DHT22;24062;47.480;8.768;2023-12-29T05:22:21;20.20;46.30
38265;DHT22;24062;47.480;8.768;2023-12-29T05:24:48;20.20;46.30
38265;DHT22;24062;47.480;8.768;2023-12-29T05:27:15;20.20;46.30
38265;DHT22;24062;47.480;8.768;2023-12-29T05:29:42;20.20;46.20
38265;DHT22;24062;47.480;8.768;2023-12-29T05:32:10;20.20;46.20
38265;DHT22;24062;47.480;8.768;2023-12-29T05:34:37;20.20;46.20
38265;DHT22;24062;47.480;8.768;2023-12-29T05:37:04;20.20;46.20
38265;DHT22;24062;47.480;8.768;2023-12-29T05:39:31;20.20;46.20
38265;DHT22;24062;47.480;8.768;2023-12-29T05:41:58;20.20;46.20
38265;DHT22;24062;47.480;8.768;2023-12-29T05:44:25;20.20;46.20
38265;DHT22;24062;47.480;8.768;2023-12-29T05:46:52;20.30;46.20
38265;DHT22;24062;47.480;8.768;2023-12-29T05:49:25;20.30;46.20
38265;DHT22;24062;47.480;8.768;2023-12-29T05:51:52;20.30;46.20
38265;DHT22;24062;47.480;8.768;2023-12-29T05:54:19;20.30;46.20
38265;DHT22;24062;47.480;8.768;2023-12-29T05:56:46;20.30;46.20
38265;DHT22;24062;47.480;8.768;2023-12-29T05:59:13;20.30;46.20
38265;DHT22;24062;47.480;8.768;2023-12-29T06:01:40;20.40;46.20
38265;DHT22;24062;47.480;8.768;2023-12-29T06:04:07;20.30;46.10
38265;DHT22;24062;47.480;8.768;2023-12-29T06:06:35;20.30;46.10
38265;DHT22;24062;47.480;8.768;2023-12-29T06:09:02;20.30;46.10
38265;DHT22;24062;47.480;8.768;2023-12-29T06:11:29;20.40;46.20
38265;DHT22;24062;47.480;8.768;2023-12-29T06:13:56;20.40;46.20
38265;DHT22;24062;47.480;8.768;2023-12-29T06:16:23;20.40;46.20
38265;DHT22;24062;47.480;8.768;2023-12-29T06:18:52;20.40;46.20
38265;DHT22;24062;47.480;8.768;2023-12-29T06:21:19;20.40;46.10
38265;DHT22;24062;47.480;8.768;2023-12-29T06:23:48;20.40;46.10
38265;DHT22;24062;47.480;8.768;2023-12-29T06:26:15;20.40;46.10
38265;DHT22;24062;47.480;8.768;2023-12-29T06:28:43;20.40;46.70
38265;DHT22;24062;47.480;8.768;2023-12-29T06:31:11;20.50;46.10
38265;DHT22;24062;47.480;8.768;2023-12-29T06:33:40;20.50;46.20
38265;DHT22;24062;47.480;8.768;2023-12-29T06:36:08;20.50;46.20
38265;DHT22;24062;47.480;8.768;2023-12-29T06:38:35;20.50;46.10
38265;DHT22;24062;47.480;8.768;2023-12-29T06:41:04;20.50;46.10
38265;DHT22;24062;47.480;8.768;2023-12-29T06:43:32;20.50;46.10
38265;DHT22;24062;47.480;8.768;2023-12-29T06:45:59;20.50;46.10
38265;DHT22;24062;47.480;8.768;2023-12-29T06:48:26;20.50;46.10
38265;DHT22;24062;47.480;8.768;2023-12-29T06:50:53;20.50;46.10
38265;DHT22;24062;47.480;8.768;2023-12-29T06:53:20;20.50;46.00
38265;DHT22;24062;47.480;8.768;2023-12-29T06:55:47;20.50;46.10
38265;DHT22;24062;47.480;8.768;2023-12-29T06:58:15;20.50;46.10
38265;DHT22;24062;47.480;8.768;2023-12-29T07:00:42;20.60;46.10
38265;DHT22;24062;47.480;8.768;2023-12-29T07:03:09;20.50;46.00
38265;DHT22;24062;47.480;8.768;2023-12-29T07:05:38;20.60;46.10
38265;DHT22;24062;47.480;8.768;2023-12-29T07:08:06;20.60;46.10
38265;DHT22;24062;47.480;8.768;2023-12-29T07:10:33;20.60;46.10
38265;DHT22;24062;47.480;8.768;2023-12-29T07:12:59;20.60;46.00
38265;DHT22;24062;47.480;8.768;2023-12-29T07:15:28;20.60;46.00
38265;DHT22;24062;47.480;8.768;2023-12-29T07:17:55;20.60;46.00
38265;DHT22;24062;47.480;8.768;2023-12-29T07:20:22;20.60;46.00
38265;DHT22;24062;47.480;8.768;2023-12-29T07:22:49;20.60;46.00
38265;DHT22;24062;47.480;8.768;2023-12-29T07:25:16;20.60;46.00
38265;DHT22;24062;47.480;8.768;2023-12-29T07:27:42;20.60;46.00
38265;DHT22;24062;47.480;8.768;2023-12-29T07:30:10;20.60;46.00
38265;DHT22;24062;47.480;8.768;2023-12-29T07:32:39;20.60;46.00
38265;DHT22;24062;47.480;8.768;2023-12-29T07:35:06;20.70;46.10
38265;DHT22;24062;47.480;8.768;2023-12-29T07:37:33;20.70;46.10
38265;DHT22;24062;47.480;8.768;2023-12-29T07:40:00;20.70;46.10
38265;DHT22;24062;47.480;8.768;2023-12-29T07:42:29;20.70;46.10
38265;DHT22;24062;47.480;8.768;2023-12-29T07:44:57;20.60;45.90
38265;DHT22;24062;47.480;8.768;2023-12-29T07:47:25;20.70;46.00
38265;DHT22;24062;47.480;8.768;2023-12-29T07:49:53;20.70;46.00
38265;DHT22;24062;47.480;8.768;2023-12-29T07:52:20;20.70;46.00
38265;DHT22;24062;47.480;8.768;2023-12-29T07:54:47;20.70;46.00
38265;DHT22;24062;47.480;8.768;2023-12-29T07:57:14;20.70;46.00
38265;DHT22;24062;47.480;8.768;2023-12-29T07:59:41;20.70;46.00
38265;DHT22;24062;47.480;8.768;2023-12-29T08:02:08;20.70;46.00
38265;DHT22;24062;47.480;8.768;2023-12-29T08:04:35;20.80;46.00
38265;DHT22;24062;47.480;8.768;2023-12-29T08:07:04;20.80;46.00
38265;DHT22;24062;47.480;8.768;2023-12-29T08:09:31;20.80;46.00
38265;DHT22;24062;47.480;8.768;2023-12-29T08:11:58;20.80;46.00
38265;DHT22;24062;47.480;8.768;2023-12-29T08:14:25;20.80;46.00
38265;DHT22;24062;47.480;8.768;2023-12-29T08:16:52;20.80;46.00
38265;DHT22;24062;47.480;8.768;2023-12-29T08:19:18;20.80;46.00
38265;DHT22;24062;47.480;8.768;2023-12-29T08:21:45;20.80;46.00
38265;DHT22;24062;47.480;8.768;2023-12-29T08:24:14;20.80;46.00
38265;DHT22;24062;47.480;8.768;2023-12-29T08:26:44;20.80;46.00
38265;DHT22;24062;47.480;8.768;2023-12-29T08:29:12;20.80;45.90
38265;DHT22;24062;47.480;8.768;2023-12-29T08:31:39;20.80;46.00
38265;DHT22;24062;47.480;8.768;2023-12-29T08:34:05;20.80;45.90
38265;DHT22;24062;47.480;8.768;2023-12-29T08:36:32;20.80;46.50
38265;DHT22;24062;47.480;8.768;2023-12-29T08:39:00;20.90;46.00
38265;DHT22;24062;47.480;8.768;2023-12-29T08:41:28;20.80;45.90
38265;DHT22;24062;47.480;8.768;2023-12-29T08:43:55;20.80;46.70
38265;DHT22;24062;47.480;8.768;2023-12-29T08:46:22;20.80;46.00
38265;DHT22;24062;47.480;8.768;2023-12-29T08:48:50;20.90;46.00
38265;DHT22;24062;47.480;8.768;2023-12-29T08:51:17;20.90;46.00
38265;DHT22;24062;47.480;8.768;2023-12-29T08:53:44;20.90;46.00
38265;DHT22;24062;47.480;8.768;2023-12-29T08:56:11;20.90;46.00
38265;DHT22;24062;47.480;8.768;2023-12-29T08:58:40;20.90;46.00
38265;DHT22;24062;47.480;8.768;2023-12-29T09:01:07;20.90;46.00
38265;DHT22;24062;47.480;8.768;2023-12-29T09:03:34;20.90;46.00
38265;DHT22;24062;47.480;8.768;2023-12-29T09:06:01;20.90;46.00
38265;DHT22;24062;47.480;8.768;2023-12-29T09:08:29;20.90;45.90
38265;DHT22;24062;47.480;8.768;2023-12-29T09:10:55;20.90;46.00
38265;DHT22;24062;47.480;8.768;2023-12-29T09:13:22;20.90;46.00
38265;DHT22;24062;47.480;8.768;2023-12-29T09:15:52;20.90;46.00
38265;DHT22;24062;47.480;8.768;2023-12-29T09:18:19;20.90;46.00
38265;DHT22;24062;47.480;8.768;2023-12-29T09:20:46;20.90;46.00
38265;DHT22;24062;47.480;8.768;2023-12-29T09:23:13;20.90;46.00
38265;DHT22;24062;47.480;8.768;2023-12-29T09:25:40;20.90;46.00
38265;DHT22;24062;47.480;8.768;2023-12-29T09:28:07;21.00;46.00
38265;DHT22;24062;47.480;8.768;2023-12-29T09:30:34;21.00;46.00
38265;DHT22;24062;47.480;8.768;2023-12-29T09:33:02;21.00;46.00
38265;DHT22;24062;47.480;8.768;2023-12-29T09:35:29;20.90;45.90
38265;DHT22;24062;47.480;8.768;2023-12-29T09:37:57;20.90;45.90
38265;DHT22;24062;47.480;8.768;2023-12-29T09:40:24;21.00;46.00
38265;DHT22;24062;47.480;8.768;2023-12-29T09:42:52;21.00;46.00
38265;DHT22;24062;47.480;8.768;2023-12-29T09:45:23;21.00;46.00
38265;DHT22;24062;47.480;8.768;2023-12-29T09:47:51;21.00;46.00
38265;DHT22;24062;47.480;8.768;2023-12-29T09:50:21;20.90;45.90
38265;DHT22;24062;47.480;8.768;2023-12-29T09:52:48;21.00;46.00
38265;DHT22;24062;47.480;8.768;2023-12-29T09:55:16;21.00;45.90
38265;DHT22;24062;47.480;8.768;2023-12-29T09:57:44;21.00;45.90
38265;DHT22;24062;47.480;8.768;2023-12-29T10:00:15;21.00;45.90
38265;DHT22;24062;47.480;8.768;2023-12-29T10:02:43;21.00;45.90
38265;DHT22;24062;47.480;8.768;2023-12-29T10:05:10;21.00;45.90
38265;DHT22;24062;47.480;8.768;2023-12-29T10:07:39;21.00;45.90
38265;DHT22;24062;47.480;8.768;2023-12-29T10:10:06;21.00;45.90
38265;DHT22;24062;47.480;8.768;2023-12-29T10:12:34;21.10;46.00
38265;DHT22;24062;47.480;8.768;2023-12-29T10:15:06;21.10;46.00
38265;DHT22;24062;47.480;8.768;2023-12-29T10:17:43;21.10;46.00
38265;DHT22;24062;47.480;8.768;2023-12-29T10:20:20;21.10;46.00
38265;DHT22;24062;47.480;8.768;2023-12-29T10:23:03;21.10;45.90
38265;DHT22;24062;47.480;8.768;2023-12-29T10:25:32;21.10;45.90
38265;DHT22;24062;47.480;8.768;2023-12-29T10:27:59;21.10;45.90
38265;DHT22;24062;47.480;8.768;2023-12-29T10:30:26;21.10;45.90
38265;DHT22;24062;47.480;8.768;2023-12-29T10:32:53;21.20;45.90
38265;DHT22;24062;47.480;8.768;2023-12-29T10:35:20;21.20;45.90
38265;DHT22;24062;47.480;8.768;2023-12-29T10:37:47;21.20;45.90
38265;DHT22;24062;47.480;8.768;2023-12-29T10:40:19;21.20;45.90
38265;DHT22;24062;47.480;8.768;2023-12-29T10:42:52;21.20;45.90
38265;DHT22;24062;47.480;8.768;2023-12-29T10:45:20;21.20;45.80
38265;DHT22;24062;47.480;8.768;2023-12-29T10:47:47;21.30;45.90
38265;DHT22;24062;47.480;8.768;2023-12-29T10:50:14;21.30;45.90
38265;DHT22;24062;47.480;8.768;2023-12-29T10:52:41;21.40;45.90
38265;DHT22;24062;47.480;8.768;2023-12-29T10:55:09;21.40;45.80
38265;DHT22;24062;47.480;8.768;2023-12-29T10:57:39;21.40;45.80
38265;DHT22;24062;47.480;8.768;2023-12-29T11:00:07;21.40;45.80
38265;DHT22;24062;47.480;8.768;2023-12-29T11:02:34;21.40;45.80
38265;DHT22;24062;47.480;8.768;2023-12-29T11:05:02;21.40;45.80
38265;DHT22;24062;47.480;8.768;2023-12-29T11:07:37;21.40;45.80
38265;DHT22;24062;47.480;8.768;2023-12-29T11:10:06;21.40;45.80
38265;DHT22;24062;47.480;8.768;2023-12-29T11:12:34;21.40;45.80
38265;DHT22;24062;47.480;8.768;2023-12-29T11:15:04;21.40;45.80
38265;DHT22;24062;47.480;8.768;2023-12-29T11:17:33;21.40;45.80
38265;DHT22;24062;47.480;8.768;2023-12-29T11:20:01;21.40;45.80
38265;DHT22;24062;47.480;8.768;2023-12-29T11:22:29;21.40;45.80
38265;DHT22;24062;47.480;8.768;2023-12-29T11:24:57;21.40;45.80
38265;DHT22;24062;47.480;8.768;2023-12-29T11:27:30;21.50;45.90
38265;DHT22;24062;47.480;8.768;2023-12-29T11:29:59;21.50;45.80
38265;DHT22;24062;47.480;8.768;2023-12-29T11:32:34;21.50;46.40
38265;DHT22;24062;47.480;8.768;2023-12-29T11:35:12;21.50;45.80
38265;DHT22;24062;47.480;8.768;2023-12-29T11:38:08;21.50;45.80
38265;DHT22;24062;47.480;8.768;2023-12-29T11:40:44;21.50;46.40
38265;DHT22;24062;47.480;8.768;2023-12-29T11:43:15;21.50;45.80
38265;DHT22;24062;47.480;8.768;2023-12-29T11:45:43;21.50;46.40
38265;DHT22;24062;47.480;8.768;2023-12-29T11:48:12;21.50;45.70
38265;DHT22;24062;47.480;8.768;2023-12-29T11:50:39;21.50;45.70
38265;DHT22;24062;47.480;8.768;2023-12-29T11:53:07;21.60;45.80
38265;DHT22;24062;47.480;8.768;2023-12-29T11:55:35;21.60;45.70
38265;DHT22;24062;47.480;8.768;2023-12-29T11:58:03;21.60;45.80
38265;DHT22;24062;47.480;8.768;2023-12-29T12:00:44;21.60;45.70
38265;DHT22;24062;47.480;8.768;2023-12-29T12:03:24;21.60;45.60
38265;DHT22;24062;47.480;8.768;2023-12-29T12:05:52;21.60;45.60
38265;DHT22;24062;47.480;8.768;2023-12-29T12:08:30;21.60;45.60
38265;DHT22;24062;47.480;8.768;2023-12-29T12:13:46;21.70;45.70
38265;DHT22;24062;47.480;8.768;2023-12-29T12:16:47;21.70;45.70
38265;DHT22;24062;47.480;8.768;2023-12-29T12:19:16;21.70;45.70
38265;DHT22;24062;47.480;8.768;2023-12-29T12:21:46;21.70;45.70
38265;DHT22;24062;47.480;8.768;2023-12-29T12:24:14;21.70;45.70
38265;DHT22;24062;47.480;8.768;2023-12-29T12:26:42;21.70;45.60
38265;DHT22;24062;47.480;8.768;2023-12-29T12:29:09;21.70;45.60
38265;DHT22;24062;47.480;8.768;2023-12-29T12:31:36;21.80;45.60
38265;DHT22;24062;47.480;8.768;2023-12-29T12:34:03;21.80;45.60
38265;DHT22;24062;47.480;8.768;2023-12-29T12:36:32;21.80;45.60
38265;DHT22;24062;47.480;8.768;2023-12-29T12:39:14;21.90;45.60
38265;DHT22;24062;47.480;8.768;2023-12-29T12:41:41;21.90;45.60
38265;DHT22;24062;47.480;8.768;2023-12-29T12:44:10;21.90;45.60
38265;DHT22;24062;47.480;8.768;2023-12-29T12:46:40;21.90;45.50
38265;DHT22;24062;47.480;8.768;2023-12-29T12:49:08;21.90;45.50
38265;DHT22;24062;47.480;8.768;2023-12-29T12:51:36;21.90;45.50
38265;DHT22;24062;47.480;8.768;2023-12-29T12:54:04;22.00;45.50
38265;DHT22;24062;47.480;8.768;2023-12-29T12:56:31;22.00;45.50
38265;DHT22;24062;47.480;8.768;2023-12-29T12:58:59;22.00;45.50
38265;DHT22;24062;47.480;8.768;2023-12-29T13:01:28;22.00;46.20
38265;DHT22;24062;47.480;8.768;2023-12-29T13:03:57;22.00;45.50
38265;DHT22;24062;47.480;8.768;2023-12-29T13:06:24;22.00;45.50
38265;DHT22;24062;47.480;8.768;2023-12-29T13:08:53;22.00;45.40
38265;DHT22;24062;47.480;8.768;2023-12-29T13:11:20;22.10;45.50
38265;DHT22;24062;47.480;8.768;2023-12-29T13:13:50;22.10;45.50
38265;DHT22;24062;47.480;8.768;2023-12-29T13:16:28;22.10;45.40
38265;DHT22;24062;47.480;8.768;2023-12-29T13:18:55;22.10;45.40
38265;DHT22;24062;47.480;8.768;2023-12-29T13:21:22;22.10;45.40
38265;DHT22;24062;47.480;8.768;2023-12-29T13:23:49;22.10;45.40
38265;DHT22;24062;47.480;8.768;2023-12-29T13:26:18;22.10;45.40
38265;DHT22;24062;47.480;8.768;2023-12-29T13:28:46;22.10;45.40
38265;DHT22;24062;47.480;8.768;2023-12-29T13:31:13;22.10;45.40
38265;DHT22;24062;47.480;8.768;2023-12-29T13:33:47;22.10;45.40
38265;DHT22;24062;47.480;8.768;2023-12-29T13:36:22;22.20;46.10
38265;DHT22;24062;47.480;8.768;2023-12-29T13:38:52;22.20;45.40
38265;DHT22;24062;47.480;8.768;2023-12-29T13:41:22;22.20;45.40
38265;DHT22;24062;47.480;8.768;2023-12-29T13:43:52;22.20;45.40
38265;DHT22;24062;47.480;8.768;2023-12-29T13:46:20;22.20;45.40
38265;DHT22;24062;47.480;8.768;2023-12-29T13:48:47;22.20;45.40
38265;DHT22;24062;47.480;8.768;2023-12-29T13:51:16;22.20;45.40
38265;DHT22;24062;47.480;8.768;2023-12-29T13:53:43;22.30;45.40
38265;DHT22;24062;47.480;8.768;2023-12-29T13:56:10;22.20;45.30
38265;DHT22;24062;47.480;8.768;2023-12-29T13:58:39;22.20;45.40
38265;DHT22;24062;47.480;8.768;2023-12-29T14:01:08;22.20;45.40
38265;DHT22;24062;47.480;8.768;2023-12-29T14:03:43;22.20;45.30
38265;DHT22;24062;47.480;8.768;2023-12-29T14:06:19;22.20;45.40
38265;DHT22;24062;47.480;8.768;2023-12-29T14:08:47;22.20;45.40
38265;DHT22;24062;47.480;8.768;2023-12-29T14:11:14;22.20;45.40
38265;DHT22;24062;47.480;8.768;2023-12-29T14:13:44;22.20;45.50
38265;DHT22;24062;47.480;8.768;2023-12-29T14:16:11;22.20;45.50
38265;DHT22;24062;47.480;8.768;2023-12-29T14:18:56;22.20;45.50
38265;DHT22;24062;47.480;8.768;2023-12-29T14:21:26;22.10;45.40
38265;DHT22;24062;47.480;8.768;2023-12-29T14:24:07;22.10;46.10
38265;DHT22;24062;47.480;8.768;2023-12-29T14:26:34;22.10;45.50
38265;DHT22;24062;47.480;8.768;2023-12-29T14:29:07;22.00;45.50
38265;DHT22;24062;47.480;8.768;2023-12-29T14:31:36;22.00;45.50
38265;DHT22;24062;47.480;8.768;2023-12-29T14:34:03;22.00;45.60
38265;DHT22;24062;47.480;8.768;2023-12-29T14:36:31;22.00;45.60
38265;DHT22;24062;47.480;8.768;2023-12-29T14:38:58;22.10;45.60
38265;DHT22;24062;47.480;8.768;2023-12-29T14:41:25;22.00;45.60
38265;DHT22;24062;47.480;8.768;2023-12-29T14:43:52;22.00;45.60
38265;DHT22;24062;47.480;8.768;2023-12-29T14:46:21;22.00;45.60
38265;DHT22;24062;47.480;8.768;2023-12-29T14:48:48;22.00;45.60
38265;DHT22;24062;47.480;8.768;2023-12-29T14:51:15;21.90;45.60
38265;DHT22;24062;47.480;8.768;2023-12-29T14:53:43;22.00;45.70
38265;DHT22;24062;47.480;8.768;2023-12-29T14:56:10;22.00;45.70
38265;DHT22;24062;47.480;8.768;2023-12-29T14:58:37;22.00;45.70
38265;DHT22;24062;47.480;8.768;2023-12-29T15:01:05;22.00;45.70
38265;DHT22;24062;47.480;8.768;2023-12-29T15:03:34;22.00;45.70
38265;DHT22;24062;47.480;8.768;2023-12-29T15:06:02;22.00;45.80
38265;DHT22;24062;47.480;8.768;2023-12-29T15:08:29;21.90;45.70
38265;DHT22;24062;47.480;8.768;2023-12-29T15:11:00;22.00;45.80
38265;DHT22;24062;47.480;8.768;2023-12-29T15:13:27;21.90;45.80
38265;DHT22;24062;47.480;8.768;2023-12-29T15:15:56;21.90;45.80
38265;DHT22;24062;47.480;8.768;2023-12-29T15:18:23;21.90;45.80
38265;DHT22;24062;47.480;8.768;2023-12-29T15:20:51;21.90;45.80
38265;DHT22;24062;47.480;8.768;2023-12-29T15:23:18;21.90;45.80
38265;DHT22;24062;47.480;8.768;2023-12-29T15:25:45;21.90;45.80
38265;DHT22;24062;47.480;8.768;2023-12-29T15:28:12;21.90;45.80
38265;DHT22;24062;47.480;8.768;2023-12-29T15:30:42;21.90;45.90
38265;DHT22;24062;47.480;8.768;2023-12-29T15:33:09;21.90;45.90
38265;DHT22;24062;47.480;8.768;2023-12-29T15:35:36;21.80;45.80
38265;DHT22;24062;47.480;8.768;2023-12-29T15:38:05;21.80;45.80
38265;DHT22;24062;47.480;8.768;2023-12-29T15:40:31;21.80;45.90